createdAt,value
2022-12-05T00:01:16.859Z,71.03
2022-12-05T00:03:46.153Z,55.40
2022-12-05T00:06:13.755Z,64.37
2022-12-05T00:08:41.451Z,75.80
2022-12-05T00:11:13.627Z,68.27
2022-12-05T00:13:41.563Z,60.37
2022-12-05T00:16:11.331Z,63.73
2022-12-05T00:18:40.412Z,61.63
2022-12-05T00:21:08.658Z,72.27
2022-12-05T00:23:36.081Z,70.77
2022-12-05T00:26:04.946Z,65.73
2022-12-05T00:28:32.503Z,57.33
2022-12-05T00:31:03.667Z,63.87
2022-12-05T00:33:31.102Z,59.67
2022-12-05T00:36:04.488Z,59.73
2022-12-05T00:38:31.904Z,54.63
2022-12-05T00:41:04.382Z,57.10
2022-12-05T00:43:31.915Z,59.50
2022-12-05T00:46:02.396Z,57.63
2022-12-05T00:48:29.891Z,52.70
2022-12-05T00:51:03.694Z,64.60
2022-12-05T00:53:31.672Z,56.60
2022-12-05T00:56:03.590Z,54.93
2022-12-05T00:58:31.357Z,59.33
2022-12-05T01:01:07.294Z,52.67
2022-12-05T01:03:35.031Z,50.60
2022-12-05T01:06:05.913Z,50.43
2022-12-05T01:08:34.346Z,50.80
2022-12-05T01:11:02.615Z,60.07
2022-12-05T01:13:30.497Z,53.40
2022-12-05T01:15:58.680Z,61.17
2022-12-05T01:18:26.928Z,66.07
2022-12-05T01:20:54.730Z,63.33
2022-12-05T01:23:23.737Z,61.87
2022-12-05T01:25:53.222Z,52.33
2022-12-05T01:28:21.389Z,60.27
2022-12-05T01:30:50.769Z,69.70
2022-12-05T01:33:18.588Z,67.43
2022-12-05T01:35:46.106Z,61.30
2022-12-05T01:38:13.926Z,65.77
2022-12-05T01:40:42.624Z,65.97
2022-12-05T01:43:15.822Z,62.90
2022-12-05T01:45:45.360Z,60.97
2022-12-05T01:48:17.330Z,61.40
2022-12-05T01:50:45.383Z,66.90
2022-12-05T01:53:12.837Z,70.77
2022-12-05T01:55:40.434Z,65.57
2022-12-05T01:58:11.123Z,62.67
2022-12-05T02:00:40.579Z,56.63
2022-12-05T02:03:12.663Z,66.23
2022-12-05T02:05:40.160Z,70.70
2022-12-05T02:08:10.250Z,66.80
2022-12-05T02:10:41.290Z,66.70
2022-12-05T02:13:22.324Z,61.87
2022-12-05T02:15:58.629Z,60.87
2022-12-05T02:18:40.154Z,58.97
2022-12-05T02:21:36.304Z,68.37
2022-12-05T02:24:28.649Z,58.37
2022-12-05T02:27:19.033Z,54.30
2022-12-05T02:30:02.840Z,69.50
2022-12-05T02:32:50.794Z,55.40
2022-12-05T02:35:34.070Z,71.47
2022-12-05T02:38:13.475Z,61.10
2022-12-05T02:40:48.845Z,63.93
2022-12-05T02:43:21.393Z,66.40
2022-12-05T02:45:55.386Z,73.47
2022-12-05T02:48:24.701Z,62.20
2022-12-05T02:50:54.552Z,53.27
2022-12-05T02:53:23.649Z,56.27
2022-12-05T02:55:51.273Z,62.33
2022-12-05T02:58:24.173Z,56.83
2022-12-05T03:00:57.317Z,61.83
2022-12-05T03:03:26.251Z,56.83
2022-12-05T03:06:01.344Z,54.93
2022-12-05T03:08:32.281Z,59.03
2022-12-05T03:11:02.404Z,50.33
2022-12-05T03:13:34.893Z,52.00
2022-12-05T03:16:09.076Z,51.97
2022-12-05T03:18:41.298Z,46.77
2022-12-05T03:21:16.221Z,55.43
2022-12-05T03:23:48.185Z,56.80
2022-12-05T03:26:26.619Z,45.03
2022-12-05T03:29:02.519Z,49.63
2022-12-05T03:31:39.349Z,55.87
2022-12-05T03:34:11.104Z,42.63
2022-12-05T03:36:43.875Z,48.77
2022-12-05T03:39:18.747Z,47.23
2022-12-05T03:41:56.526Z,44.13
2022-12-05T03:44:29.981Z,40.90
2022-12-05T03:47:05.534Z,49.27
2022-12-05T03:49:38.749Z,41.57
2022-12-05T03:52:11.370Z,41.50
2022-12-05T03:54:43.375Z,40.40
2022-12-05T03:57:16.080Z,47.13
2022-12-05T03:59:47.762Z,42.43
2022-12-05T04:02:27.084Z,37.93
2022-12-05T04:04:57.719Z,46.87
2022-12-05T04:07:26.709Z,41.23
2022-12-05T04:09:58.499Z,41.33
2022-12-05T04:12:30.131Z,41.00
2022-12-05T04:15:02.878Z,38.43
2022-12-05T04:17:36.123Z,38.07
2022-12-05T04:20:25.372Z,43.43
2022-12-05T04:22:52.995Z,40.83
2022-12-05T04:25:35.083Z,39.80
2022-12-05T04:28:28.211Z,45.97
2022-12-05T04:31:04.196Z,41.77
2022-12-05T04:33:40.633Z,41.80
2022-12-05T04:36:13.248Z,42.53
2022-12-05T04:38:44.906Z,39.57
2022-12-05T04:41:16.671Z,43.73
2022-12-05T04:43:48.162Z,39.53
2022-12-05T04:46:19.088Z,39.07
2022-12-05T04:48:52.152Z,42.47
2022-12-05T04:51:24.656Z,41.53
2022-12-05T04:53:58.347Z,35.30
2022-12-05T04:56:30.780Z,35.13
2022-12-05T04:58:58.451Z,35.43
2022-12-05T05:01:30.989Z,35.23
2022-12-05T05:04:04.533Z,40.93
2022-12-05T05:06:32.135Z,36.50
2022-12-05T05:09:00.025Z,36.70
2022-12-05T05:11:29.902Z,42.07
2022-12-05T05:13:57.376Z,35.30
2022-12-05T05:16:26.949Z,40.17
2022-12-05T05:18:55.047Z,34.10
2022-12-05T05:21:26.136Z,35.93
2022-12-05T05:23:54.367Z,34.00
2022-12-05T05:26:22.704Z,33.43
2022-12-05T05:28:50.864Z,37.27
2022-12-05T05:31:19.890Z,38.83
2022-12-05T05:33:49.839Z,32.33
2022-12-05T05:36:17.481Z,35.80
2022-12-05T05:38:48.253Z,30.60
2022-12-05T05:41:17.188Z,27.83
2022-12-05T05:43:44.976Z,32.37
2022-12-05T05:46:13.255Z,32.13
2022-12-05T05:48:40.871Z,29.83
2022-12-05T05:51:10.859Z,25.30
2022-12-05T05:53:39.207Z,25.47
2022-12-05T05:56:10.534Z,31.00
2022-12-05T05:58:38.048Z,27.70
2022-12-05T06:01:06.581Z,25.30
2022-12-05T06:03:34.351Z,27.57
2022-12-05T06:06:04.684Z,24.67
2022-12-05T06:08:32.362Z,25.47
2022-12-05T06:11:01.545Z,26.27
2022-12-05T06:13:30.292Z,26.90
2022-12-05T06:15:57.832Z,22.90
2022-12-05T06:18:25.396Z,23.50
2022-12-05T06:20:54.113Z,25.97
2022-12-05T06:23:21.938Z,22.57
2022-12-05T06:25:50.062Z,21.87
2022-12-05T06:28:17.766Z,23.60
2022-12-05T06:30:46.850Z,20.90
2022-12-05T06:33:15.654Z,19.67
2022-12-05T06:35:43.815Z,22.50
2022-12-05T06:38:11.915Z,20.80
2022-12-05T06:40:41.892Z,23.50
2022-12-05T06:43:09.496Z,20.97
2022-12-05T06:45:38.895Z,22.60
2022-12-05T06:48:07.963Z,22.43
2022-12-05T06:50:35.346Z,22.40
2022-12-05T06:53:02.752Z,21.70
2022-12-05T06:55:30.226Z,24.73
2022-12-05T06:57:58.346Z,22.13
2022-12-05T07:00:55.194Z,22.33
2022-12-05T07:03:23.996Z,24.23
2022-12-05T07:05:51.453Z,24.50
2022-12-05T07:08:18.926Z,24.57
2022-12-05T07:10:52.250Z,22.63
2022-12-05T07:13:19.857Z,22.23
2022-12-05T07:15:47.539Z,25.83
2022-12-05T07:18:15.428Z,23.63
2022-12-05T07:21:10.723Z,24.23
2022-12-05T07:23:32.119Z,23.67
2022-12-05T07:25:59.967Z,23.40
2022-12-05T07:28:27.400Z,25.40
2022-12-05T07:31:01.065Z,23.33
2022-12-05T07:33:28.750Z,23.13
2022-12-05T07:36:02.159Z,26.77
2022-12-05T07:38:30.699Z,26.37
2022-12-05T07:40:58.191Z,26.57
2022-12-05T07:43:25.931Z,27.07
2022-12-05T07:45:53.450Z,22.13
2022-12-05T07:48:21.223Z,24.67
2022-12-05T07:50:48.712Z,24.03
2022-12-05T07:53:17.658Z,27.17
2022-12-05T07:55:45.114Z,25.83
2022-12-05T07:58:12.592Z,25.20
2022-12-05T08:00:40.026Z,23.53
2022-12-05T08:03:07.479Z,26.03
2022-12-05T08:05:35.338Z,23.07
2022-12-05T08:08:02.855Z,24.83
2022-12-05T08:10:31.986Z,23.27
2022-12-05T08:12:59.498Z,21.60
2022-12-05T08:15:27.007Z,20.23
2022-12-05T08:17:54.442Z,24.50
2022-12-05T08:20:22.088Z,22.77
2022-12-05T08:22:52.810Z,23.13
2022-12-05T08:25:20.370Z,22.20
2022-12-05T08:27:49.106Z,24.90
2022-12-05T08:30:16.644Z,20.70
2022-12-05T08:32:44.046Z,24.70
2022-12-05T08:35:11.537Z,23.63
2022-12-05T08:37:38.950Z,22.13
2022-12-05T08:40:07.523Z,24.23
2022-12-05T08:42:34.955Z,26.20
2022-12-05T08:45:03.954Z,28.33
2022-12-05T08:47:32.587Z,22.70
2022-12-05T08:50:00.408Z,23.83
2022-12-05T08:52:28.275Z,26.20
2022-12-05T08:54:56.095Z,25.20
2022-12-05T08:57:23.723Z,21.30
2022-12-05T08:59:51.107Z,22.90
2022-12-05T09:02:19.894Z,25.07
2022-12-05T09:04:54.062Z,21.80
2022-12-05T09:07:21.747Z,23.50
2022-12-05T09:09:49.182Z,21.50
2022-12-05T09:12:16.635Z,23.53
2022-12-05T09:14:44.048Z,21.07
2022-12-05T09:17:11.452Z,23.83
2022-12-05T09:19:40.186Z,24.00
2022-12-05T09:22:07.628Z,23.50
2022-12-05T09:24:35.020Z,23.73
2022-12-05T09:27:02.491Z,21.17
2022-12-05T09:29:32.437Z,21.00
2022-12-05T09:31:59.855Z,22.57
2022-12-05T09:34:27.490Z,22.63
2022-12-05T09:37:10.638Z,20.73
2022-12-05T09:39:46.026Z,21.20
2022-12-05T09:42:32.269Z,22.00
2022-12-05T09:45:06.174Z,19.93
2022-12-05T09:47:43.785Z,20.77
2022-12-05T09:50:19.971Z,20.33
2022-12-05T09:52:59.133Z,20.77
2022-12-05T09:55:30.707Z,19.67
2022-12-05T09:58:01.455Z,23.43
2022-12-05T10:00:30.547Z,21.63
2022-12-05T10:03:04.828Z,20.50
2022-12-05T10:05:41.828Z,22.27
2022-12-05T10:08:18.857Z,23.47
2022-12-05T10:10:58.042Z,24.43
2022-12-05T10:13:42.338Z,22.43
2022-12-05T10:16:14.192Z,21.93
2022-12-05T10:18:45.043Z,22.73
2022-12-05T10:21:19.616Z,21.50
2022-12-05T10:23:58.270Z,21.00
2022-12-05T10:26:29.442Z,21.23
2022-12-05T10:29:00.305Z,22.90
2022-12-05T10:31:31.743Z,22.33
2022-12-05T10:34:05.884Z,20.50
2022-12-05T10:36:33.640Z,22.13
2022-12-05T10:39:06.945Z,20.90
2022-12-05T10:41:37.388Z,19.77
2022-12-05T10:44:06.071Z,22.47
2022-12-05T10:46:33.817Z,19.80
2022-12-05T10:49:01.290Z,22.67
2022-12-05T10:51:35.624Z,21.10
2022-12-05T10:54:17.286Z,20.93
2022-12-05T10:56:46.948Z,22.07
2022-12-05T10:59:17.144Z,25.80
2022-12-05T11:01:48.491Z,19.40
2022-12-05T11:04:24.669Z,21.93
2022-12-05T11:06:55.053Z,21.60
2022-12-05T11:09:27.042Z,21.20
2022-12-05T11:12:17.725Z,23.30
2022-12-05T11:15:01.172Z,22.57
2022-12-05T11:17:33.392Z,23.33
2022-12-05T11:20:01.614Z,19.23
2022-12-05T11:22:34.501Z,22.70
2022-12-05T11:25:25.254Z,20.87
2022-12-05T11:27:55.863Z,22.47
2022-12-05T11:30:29.249Z,22.70
2022-12-05T11:33:13.216Z,20.20
2022-12-05T11:35:41.168Z,22.57
2022-12-05T11:38:12.150Z,24.10
2022-12-05T11:40:48.626Z,22.37
2022-12-05T11:43:38.094Z,21.33
2022-12-05T11:46:14.649Z,22.70
2022-12-05T11:48:57.989Z,22.47
2022-12-05T11:51:38.060Z,25.53
2022-12-05T11:55:03.957Z,22.50
2022-12-05T11:57:34.909Z,22.73
2022-12-05T12:00:21.948Z,22.27
2022-12-05T12:03:32.563Z,26.27
2022-12-05T12:06:16.300Z,23.77
2022-12-05T12:08:57.105Z,25.87
2022-12-05T12:11:31.302Z,22.63
2022-12-05T12:14:09.382Z,25.53
2022-12-05T12:16:47.169Z,22.60
2022-12-05T12:19:30.990Z,22.77
2022-12-05T12:22:08.310Z,24.33
2022-12-05T12:24:51.360Z,24.77
2022-12-05T12:27:34.754Z,27.53
2022-12-05T12:30:10.703Z,27.47
2022-12-05T12:32:46.668Z,25.43
2022-12-05T12:35:32.875Z,24.90
2022-12-05T12:38:23.537Z,26.70
2022-12-05T12:40:54.029Z,25.07
2022-12-05T12:43:56.815Z,23.93
2022-12-05T12:46:39.123Z,24.80
2022-12-05T12:49:19.913Z,26.47
2022-12-05T12:51:53.857Z,27.63
2022-12-05T12:55:02.859Z,30.23
2022-12-05T12:57:35.206Z,28.93
2022-12-05T13:00:10.814Z,28.17
2022-12-05T13:02:45.925Z,27.17
2022-12-05T13:05:24.533Z,28.27
2022-12-05T13:07:56.739Z,29.10
2022-12-05T13:10:29.336Z,27.00
2022-12-05T13:13:00.240Z,29.00
2022-12-05T13:15:34.483Z,29.50
2022-12-05T13:18:05.385Z,31.93
2022-12-05T13:20:35.766Z,29.30
2022-12-05T13:23:08.221Z,28.80
2022-12-05T13:25:39.937Z,29.20
2022-12-05T13:28:21.309Z,30.80
2022-12-05T13:31:05.813Z,30.17
2022-12-05T13:33:37.283Z,28.80
2022-12-05T13:36:25.845Z,28.83
2022-12-05T13:39:16.291Z,32.03
2022-12-05T13:42:03.729Z,30.43
2022-12-05T13:44:36.291Z,30.57
2022-12-05T13:47:07.331Z,31.23
2022-12-05T13:49:44.898Z,31.60
2022-12-05T13:52:17.120Z,35.73
2022-12-05T13:54:47.976Z,30.57
2022-12-05T13:57:52.363Z,33.13
2022-12-05T14:00:31.914Z,35.20
2022-12-05T14:03:04.451Z,35.80
2022-12-05T14:05:45.426Z,33.60
2022-12-05T14:09:04.066Z,35.83
2022-12-05T14:11:31.765Z,34.43
2022-12-05T14:14:04.333Z,34.67
2022-12-05T14:16:45.366Z,32.47
2022-12-05T14:19:48.664Z,34.20
2022-12-05T14:22:54.805Z,34.30
2022-12-05T14:25:36.147Z,32.57
2022-12-05T14:28:19.079Z,37.20
2022-12-05T14:30:58.682Z,38.27
2022-12-05T14:33:26.511Z,38.87
2022-12-05T14:35:54.473Z,39.20
2022-12-05T14:38:28.541Z,40.30
2022-12-05T14:41:12.599Z,41.80
2022-12-05T14:43:41.803Z,37.07
2022-12-05T14:46:17.656Z,40.83
2022-12-05T14:48:48.296Z,36.97
2022-12-05T14:51:44.763Z,41.53
2022-12-05T14:54:16.668Z,38.77
2022-12-05T14:56:47.564Z,39.25
2022-12-05T14:59:25.974Z,36.60
2022-12-05T15:01:57.115Z,37.10
2022-12-05T15:04:33.349Z,37.27
2022-12-05T15:07:05.376Z,36.93
2022-12-05T15:09:44.036Z,38.33
2022-12-05T15:12:18.034Z,36.43
2022-12-05T15:14:53.315Z,34.10
2022-12-05T15:17:26.678Z,32.27
2022-12-05T15:20:00.189Z,37.27
2022-12-05T15:22:30.314Z,32.47
2022-12-05T15:24:58.030Z,32.97
2022-12-05T15:27:26.993Z,34.23
2022-12-05T15:29:56.654Z,36.77
2022-12-05T15:32:28.092Z,35.80
2022-12-05T15:35:02.497Z,39.20
2022-12-05T15:37:35.428Z,38.77
2022-12-05T15:40:10.269Z,38.40
2022-12-05T15:42:43.377Z,42.23
2022-12-05T15:45:24.200Z,39.07
2022-12-05T15:47:55.011Z,36.90
2022-12-05T15:50:27.663Z,33.90
2022-12-05T15:52:59.238Z,36.93
2022-12-05T15:55:32.816Z,35.23
2022-12-05T15:58:12.656Z,42.33
2022-12-05T16:00:44.530Z,42.17
2022-12-05T16:03:17.846Z,41.93
2022-12-05T16:05:50.514Z,38.83
2022-12-05T16:08:18.357Z,37.37
2022-12-05T16:10:45.922Z,36.20
2022-12-05T16:13:16.498Z,41.00
2022-12-05T16:15:53.035Z,36.80
2022-12-05T16:18:26.549Z,37.60
2022-12-05T16:20:54.203Z,35.17
2022-12-05T16:23:29.884Z,38.73
2022-12-05T16:26:12.353Z,39.33
2022-12-05T16:28:41.291Z,43.20
2022-12-05T16:31:09.098Z,41.37
2022-12-05T16:33:41.823Z,39.27
2022-12-05T16:36:11.587Z,36.07
2022-12-05T16:38:40.791Z,39.47
2022-12-05T16:41:09.252Z,38.63
2022-12-05T16:43:46.192Z,39.67
2022-12-05T16:46:43.808Z,39.20
2022-12-05T16:49:20.520Z,40.10
2022-12-05T16:51:55.682Z,36.93
2022-12-05T16:54:23.113Z,39.93
2022-12-05T16:56:50.952Z,39.53
2022-12-05T16:59:24.062Z,39.07
2022-12-05T17:01:51.644Z,40.50
2022-12-05T17:04:19.179Z,33.47
2022-12-05T17:06:46.649Z,41.83
2022-12-05T17:09:14.088Z,42.87
2022-12-05T17:11:45.359Z,43.37
2022-12-05T17:14:14.922Z,40.00
2022-12-05T17:16:44.479Z,39.43
2022-12-05T17:19:12.699Z,39.87
2022-12-05T17:21:42.948Z,33.90
2022-12-05T17:24:15.810Z,37.17
2022-12-05T17:26:43.262Z,39.23
2022-12-05T17:29:11.584Z,40.77
2022-12-05T17:31:39.427Z,33.57
2022-12-05T17:34:15.676Z,38.27
2022-12-05T17:36:43.240Z,36.20
2022-12-05T17:39:10.731Z,37.37
2022-12-05T17:41:38.434Z,35.37
2022-12-05T17:44:06.440Z,33.77
2022-12-05T17:46:34.401Z,36.87
2022-12-05T17:49:01.873Z,37.70
2022-12-05T17:51:30.746Z,36.53
2022-12-05T17:53:58.180Z,36.13
2022-12-05T17:56:25.571Z,31.13
2022-12-05T17:58:53.020Z,34.93
2022-12-05T18:01:21.476Z,35.43
2022-12-05T18:03:49.753Z,33.93
2022-12-05T18:06:18.415Z,32.07
2022-12-05T18:08:47.176Z,35.07
2022-12-05T18:11:15.816Z,35.53
2022-12-05T18:13:43.332Z,28.97
2022-12-05T18:16:10.874Z,32.50
2022-12-05T18:18:38.311Z,29.47
2022-12-05T18:21:08.077Z,32.57
2022-12-05T18:23:37.056Z,31.00
2022-12-05T18:26:07.237Z,30.77
2022-12-05T18:28:35.412Z,28.20
2022-12-05T18:31:08.603Z,27.43
2022-12-05T18:33:36.364Z,28.07
2022-12-05T18:36:08.745Z,29.23
2022-12-05T18:38:36.650Z,28.63
2022-12-05T18:41:07.011Z,29.30
2022-12-05T18:43:35.003Z,27.50
2022-12-05T18:46:05.316Z,27.40
2022-12-05T18:48:46.012Z,27.73
2022-12-05T18:51:16.846Z,25.93
2022-12-05T18:53:51.525Z,28.60
2022-12-05T18:56:23.715Z,28.40
2022-12-05T18:58:55.823Z,27.93
2022-12-05T19:01:23.501Z,28.80
2022-12-05T19:03:51.539Z,31.47
2022-12-05T19:06:21.324Z,29.53
2022-12-05T19:08:49.275Z,30.73
2022-12-05T19:11:20.112Z,31.20
2022-12-05T19:13:48.234Z,30.43
2022-12-05T19:16:18.516Z,32.33
2022-12-05T19:18:46.903Z,29.30
2022-12-05T19:21:14.861Z,32.10
2022-12-05T19:23:42.400Z,29.80
2022-12-05T19:26:11.163Z,29.97
2022-12-05T19:28:39.895Z,28.87
2022-12-05T19:31:09.961Z,32.60
2022-12-05T19:33:39.006Z,31.60
2022-12-05T19:36:09.953Z,30.07
2022-12-05T19:38:38.336Z,32.13
2022-12-05T19:41:07.703Z,30.77
2022-12-05T19:43:36.757Z,31.27
2022-12-05T19:46:07.419Z,31.40
2022-12-05T19:48:34.973Z,33.30
2022-12-05T19:51:02.670Z,32.57
2022-12-05T19:53:31.523Z,31.57
2022-12-05T19:56:02.443Z,34.73
2022-12-05T19:58:31.999Z,32.80
2022-12-05T20:01:09.186Z,35.17
2022-12-05T20:03:36.926Z,35.23
2022-12-05T20:06:04.707Z,33.30
2022-12-05T20:08:32.363Z,35.43
2022-12-05T20:11:04.715Z,37.50
2022-12-05T20:13:48.055Z,37.60
2022-12-05T20:16:21.355Z,37.97
2022-12-05T20:18:50.028Z,37.67
2022-12-05T20:21:19.335Z,36.33
2022-12-05T20:23:47.155Z,37.93
2022-12-05T20:26:17.699Z,38.20
2022-12-05T20:28:45.328Z,37.67
2022-12-05T20:31:14.787Z,38.97
2022-12-05T20:33:44.349Z,36.53
2022-12-05T20:36:14.117Z,35.57
2022-12-05T20:38:42.085Z,38.20
2022-12-05T20:41:11.354Z,38.40
2022-12-05T20:43:39.301Z,35.87
2022-12-05T20:46:08.461Z,35.43
2022-12-05T20:48:36.604Z,35.93
2022-12-05T20:51:07.079Z,34.80
2022-12-05T20:53:35.948Z,33.70
2022-12-05T20:56:04.955Z,32.73
2022-12-05T20:58:32.469Z,31.50
2022-12-05T21:01:00.519Z,32.80
2022-12-05T21:03:28.275Z,31.07
2022-12-05T21:05:55.790Z,31.40
2022-12-05T21:08:24.541Z,29.80
2022-12-05T21:10:53.487Z,27.50
2022-12-05T21:13:21.216Z,28.13
2022-12-05T21:15:48.746Z,28.60
2022-12-05T21:18:16.212Z,27.23
2022-12-05T21:20:43.647Z,25.47
2022-12-05T21:23:11.338Z,27.30
2022-12-05T21:25:40.065Z,24.87
2022-12-05T21:28:07.458Z,27.00
2022-12-05T21:30:35.553Z,29.03
2022-12-05T21:33:05.449Z,25.27
2022-12-05T21:35:33.270Z,25.30
2022-12-05T21:38:01.189Z,25.93
2022-12-05T21:40:29.552Z,23.37
2022-12-05T21:42:58.301Z,25.47
2022-12-05T21:45:25.760Z,26.00
2022-12-05T21:47:53.826Z,25.27
2022-12-05T21:50:21.220Z,26.13
2022-12-05T21:52:48.622Z,21.33
2022-12-05T21:55:16.024Z,26.03
2022-12-05T21:57:43.426Z,23.60
2022-12-05T22:00:13.184Z,25.33
2022-12-05T22:02:40.619Z,24.40
2022-12-05T22:05:08.794Z,23.87
2022-12-05T22:07:36.262Z,25.23
2022-12-05T22:10:03.957Z,19.97
2022-12-05T22:12:34.293Z,24.57
2022-12-05T22:15:02.156Z,22.70
2022-12-05T22:17:31.189Z,22.67
2022-12-05T22:20:01.947Z,22.37
2022-12-05T22:22:31.267Z,22.53
2022-12-05T22:24:59.070Z,23.43
2022-12-05T22:27:27.923Z,21.67
2022-12-05T22:29:55.316Z,21.03
2022-12-05T22:32:22.857Z,20.83
2022-12-05T22:34:59.184Z,22.57
2022-12-05T22:37:29.642Z,22.03
2022-12-05T22:39:59.443Z,20.97
2022-12-05T22:42:27.845Z,20.90
2022-12-05T22:44:56.330Z,20.50
2022-12-05T22:47:23.805Z,21.17
2022-12-05T22:49:52.530Z,21.23
2022-12-05T22:52:20.113Z,21.37
2022-12-05T22:54:47.507Z,21.60
2022-12-05T22:57:17.268Z,23.27
2022-12-05T22:59:44.704Z,20.57
2022-12-05T23:02:12.119Z,22.43
2022-12-05T23:04:42.058Z,22.50
2022-12-05T23:07:10.814Z,21.53
2022-12-05T23:09:38.283Z,21.60
2022-12-05T23:12:06.216Z,20.73
2022-12-05T23:14:33.728Z,21.27
2022-12-05T23:17:01.281Z,20.77
2022-12-05T23:19:28.756Z,19.93
2022-12-05T23:21:56.398Z,20.60
2022-12-05T23:24:25.245Z,21.47
2022-12-05T23:26:52.693Z,30.80
2022-12-05T23:29:20.241Z,22.23
2022-12-05T23:31:47.708Z,17.97
2022-12-05T23:34:15.203Z,13.87
2022-12-05T23:36:42.680Z,14.63
2022-12-05T23:39:10.424Z,15.60
2022-12-05T23:41:39.218Z,15.23
2022-12-05T23:44:06.700Z,13.50
2022-12-05T23:46:34.254Z,14.17
2022-12-05T23:49:01.865Z,11.60
2022-12-05T23:51:30.480Z,11.83
2022-12-05T23:54:00.206Z,13.53
2022-12-05T23:56:29.470Z,15.57
2022-12-05T23:58:58.236Z,16.40
